createdAt,value
2019-05-03T00:03:39.343Z,13.2
2019-05-03T00:09:12.758Z,13.2
2019-05-03T00:14:46.058Z,10.7
2019-05-03T00:20:19.482Z,9.6
2019-05-03T00:25:52.688Z,11.9
2019-05-03T00:31:25.967Z,10.7
2019-05-03T00:36:59.212Z,9.6
2019-05-03T00:42:32.374Z,10.7
2019-05-03T00:48:05.593Z,8.4
2019-05-03T00:53:38.585Z,8.4
2019-05-03T00:59:12.639Z,11.9
2019-05-03T01:04:44.941Z,8.4
2019-05-03T01:10:18.082Z,14.4
2019-05-03T01:15:51.942Z,10.7
2019-05-03T01:21:24.351Z,7.2
2019-05-03T01:26:57.576Z,8.4
2019-05-03T01:32:32.680Z,10.7
2019-05-03T01:38:03.948Z,9.6
2019-05-03T01:43:37.240Z,9.6
2019-05-03T01:49:12.142Z,9.6
2019-05-03T01:54:43.557Z,8.4
2019-05-03T02:00:16.905Z,9.6
2019-05-03T02:05:49.659Z,10.7
2019-05-03T02:11:22.759Z,9.6
2019-05-03T02:16:55.853Z,7.2
2019-05-03T02:22:29.056Z,9.6
2019-05-03T02:28:02.300Z,10.7
2019-05-03T02:33:35.439Z,9.6
2019-05-03T02:39:08.274Z,10.7
2019-05-03T02:44:41.185Z,7.2
2019-05-03T02:50:16.627Z,5.9
2019-05-03T02:55:47.227Z,5.9
2019-05-03T03:01:19.947Z,5.9
2019-05-03T03:06:55.435Z,3.6
2019-05-03T03:12:25.719Z,3.6
2019-05-03T03:17:57.238Z,0
2019-05-03T03:23:29.998Z,4.8
2019-05-03T03:29:05.282Z,4.8
2019-05-03T03:34:38.501Z,5.9
2019-05-03T03:40:07.264Z,0
2019-05-03T03:45:39.635Z,0
2019-05-03T03:51:12.001Z,0
2019-05-03T03:56:55.761Z,5.9
2019-05-03T04:02:17.640Z,8.4
2019-05-03T04:07:50.260Z,5.9
2019-05-03T04:13:25.298Z,0
2019-05-03T04:18:55.273Z,7.2
2019-05-03T04:24:28.029Z,8.4
2019-05-03T04:30:00.795Z,7.2
2019-05-03T04:35:36.257Z,5.9
2019-05-03T04:41:06.227Z,0
2019-05-03T04:46:38.449Z,0
2019-05-03T04:52:10.838Z,0
2019-05-03T04:57:46.649Z,0
2019-05-03T05:03:15.798Z,5.9
2019-05-03T05:08:48.604Z,5.9
2019-05-03T05:14:21.655Z,8.4
2019-05-03T05:19:54.877Z,5.9
2019-05-03T05:25:27.302Z,7.2
2019-05-03T05:31:00.205Z,8.4
2019-05-03T05:36:34.711Z,5.9
2019-05-03T05:42:05.325Z,0
2019-05-03T05:47:37.805Z,0
2019-05-03T05:53:10.244Z,0
2019-05-03T05:58:44.884Z,0
2019-05-03T06:04:15.803Z,0
2019-05-03T06:09:48.830Z,7.2
2019-05-03T06:15:21.254Z,0
2019-05-03T06:20:54.344Z,0
2019-05-03T06:26:26.375Z,0
2019-05-03T06:31:58.928Z,0
2019-05-03T06:37:31.543Z,0
2019-05-03T06:43:08.310Z,0
2019-05-03T06:48:31.946Z,0
2019-05-03T06:54:05.014Z,10.7
2019-05-03T06:59:37.491Z,9.6
2019-05-03T07:05:10.948Z,13.2
2019-05-03T07:10:44.745Z,13.2
2019-05-03T07:16:18.380Z,13.2
2019-05-03T07:21:52.058Z,13.2
2019-05-03T07:27:25.726Z,10.7
2019-05-03T07:32:59.422Z,10.7
2019-05-03T07:38:34.821Z,18
2019-05-03T07:44:06.736Z,14.4
2019-05-03T07:49:40.453Z,10.7
2019-05-03T07:55:14.926Z,13.2
2019-05-03T08:00:48.031Z,15.6
2019-05-03T08:06:21.748Z,11.9
2019-05-03T08:11:55.419Z,11.9
2019-05-03T08:17:29.235Z,15.6
2019-05-03T08:23:05.073Z,14.4
2019-05-03T08:28:36.620Z,11.9
2019-05-03T08:34:10.350Z,9.6
2019-05-03T08:39:44.711Z,5.9
2019-05-03T08:45:16.560Z,4.8
2019-05-03T08:50:49.664Z,0
2019-05-03T08:56:24.531Z,7.2
2019-05-03T09:01:56.632Z,0
2019-05-03T09:07:30.079Z,0
2019-05-03T09:13:06.005Z,0
2019-05-03T09:18:36.928Z,10.7
2019-05-03T09:24:10.572Z,11.9
2019-05-03T09:29:46.115Z,11.9
2019-05-03T09:35:29.531Z,10.7
2019-05-03T09:40:54.433Z,10.7
2019-05-03T09:46:26.378Z,4.8
2019-05-03T09:52:00.544Z,20.4
2019-05-03T09:57:34.848Z,20.4
2019-05-03T10:03:09.159Z,21.5
2019-05-03T10:08:45.340Z,22.8
2019-05-03T10:14:18.359Z,19.2
2019-05-03T10:19:54.703Z,20.4
2019-05-03T10:25:27.817Z,8.4
2019-05-03T10:31:07.009Z,21.5
2019-05-03T10:36:37.207Z,20.4
2019-05-03T10:42:11.611Z,15.6
2019-05-03T10:47:45.750Z,15.6
2019-05-03T10:53:19.842Z,14.4
2019-05-03T10:58:54.914Z,21.5
2019-05-03T11:04:28.786Z,22.8
2019-05-03T11:10:05.315Z,20.4
2019-05-03T11:15:37.860Z,21.5
2019-05-03T11:21:14.121Z,20.4
2019-05-03T11:26:46.891Z,18
2019-05-03T11:32:21.430Z,18
2019-05-03T11:37:55.938Z,21.5
2019-05-03T11:43:30.607Z,20.4
2019-05-03T11:49:05.664Z,19.2
2019-05-03T11:54:40.507Z,18
2019-05-03T12:00:15.796Z,20.4
2019-05-03T12:05:50.666Z,16.8
2019-05-03T12:11:25.387Z,18
2019-05-03T12:17:16.455Z,11.9
2019-05-03T12:22:35.870Z,11.9
2019-05-03T12:28:08.752Z,10.7
2019-05-03T12:33:45.724Z,9.6
2019-05-03T12:39:26.158Z,20.4
2019-05-03T12:44:52.020Z,15.6
2019-05-03T12:50:26.431Z,19.2
2019-05-03T12:56:00.754Z,16.8
2019-05-03T13:01:41.488Z,15.6
2019-05-03T13:07:09.148Z,19.2
2019-05-03T13:12:50.473Z,15.6
2019-05-03T13:18:17.327Z,16.8
2019-05-03T13:23:51.252Z,11.9
2019-05-03T13:29:25.581Z,9.6
2019-05-03T13:34:58.632Z,10.7
2019-05-03T13:40:32.624Z,11.9
2019-05-03T13:46:06.731Z,9.6
2019-05-03T13:51:40.869Z,15.6
2019-05-03T13:57:15.498Z,14.4
2019-05-03T14:02:49.159Z,13.2
2019-05-03T14:08:25.276Z,14.4
2019-05-03T14:13:57.457Z,22.8
2019-05-03T14:19:31.606Z,20.4
2019-05-03T14:25:05.637Z,21.5
2019-05-03T14:30:39.672Z,11.9
2019-05-03T14:36:15.801Z,11.9
2019-05-03T14:41:47.765Z,15.6
2019-05-03T14:47:22.115Z,15.6
2019-05-03T14:52:56.993Z,16.8
2019-05-03T14:58:30.694Z,14.4
2019-05-03T15:04:05.818Z,10.7
2019-05-03T15:09:39.162Z,11.9
2019-05-03T15:15:14.619Z,20.4
2019-05-03T15:20:48.186Z,11.9
2019-05-03T15:26:24.684Z,13.2
2019-05-03T15:31:56.920Z,13.2
2019-05-03T15:37:31.521Z,13.2
2019-05-03T15:43:05.943Z,10.7
2019-05-03T15:48:40.225Z,19.2
2019-05-03T15:54:15.295Z,19.2
2019-05-03T15:59:48.887Z,13.2
2019-05-03T16:05:24.921Z,9.6
2019-05-03T16:10:56.407Z,9.6
2019-05-03T16:16:29.903Z,0
2019-05-03T16:22:04.851Z,7.2
2019-05-03T16:27:37.902Z,7.2
2019-05-03T16:33:23.758Z,7.2
2019-05-03T16:38:45.170Z,0
2019-05-03T16:44:18.612Z,0
2019-05-03T16:49:52.010Z,0
2019-05-03T16:55:25.714Z,0
2019-05-03T17:00:58.785Z,0
2019-05-03T17:06:34.695Z,9.6
2019-05-03T17:12:06.504Z,8.4
2019-05-03T17:17:40.021Z,10.7
2019-05-03T17:23:15.412Z,10.7
2019-05-03T17:28:48.092Z,9.6
2019-05-03T17:34:21.917Z,9.6
2019-05-03T17:39:55.056Z,0
2019-05-03T17:45:28.133Z,0
2019-05-03T17:51:01.248Z,0
2019-05-03T17:56:35.056Z,0
2019-05-03T18:02:07.111Z,0
2019-05-03T18:07:40.059Z,0
2019-05-03T18:13:14.328Z,0
2019-05-03T18:24:19.959Z,0
2019-05-03T18:29:52.845Z,0
2019-05-03T18:35:25.816Z,0
2019-05-03T18:40:58.825Z,0
2019-05-03T18:46:31.463Z,0
2019-05-03T18:52:04.431Z,0
2019-05-03T18:57:37.000Z,0
2019-05-03T19:03:09.644Z,0
2019-05-03T19:08:44.676Z,15.6
2019-05-03T19:14:16.516Z,14.4
2019-05-03T19:19:50.043Z,15.6
2019-05-03T19:25:25.434Z,15.6
2019-05-03T19:30:57.313Z,11.9
2019-05-03T19:36:30.719Z,8.4
2019-05-03T19:42:04.179Z,8.4
2019-05-03T19:47:37.668Z,9.6
2019-05-03T19:53:11.038Z,7.2
2019-05-03T19:58:44.143Z,7.2
2019-05-03T20:04:17.204Z,8.4
2019-05-03T20:09:50.542Z,8.4
2019-05-03T20:15:23.878Z,9.6
2019-05-03T20:20:57.237Z,8.4
2019-05-03T20:26:29.966Z,8.4
2019-05-03T20:32:02.507Z,4.8
2019-05-03T20:37:35.310Z,7.2
2019-05-03T20:43:07.849Z,0
2019-05-03T20:48:40.348Z,0
2019-05-03T20:54:12.886Z,0
2019-05-03T20:59:49.430Z,5.9
2019-05-03T21:05:27.633Z,0
2019-05-03T21:10:50.796Z,0
2019-05-03T21:16:23.354Z,0
2019-05-03T21:21:55.908Z,0
2019-05-03T21:27:29.004Z,8.4
2019-05-03T21:33:01.541Z,0
2019-05-03T21:38:35.399Z,0
2019-05-03T21:44:06.610Z,0
2019-05-03T21:49:39.001Z,0
2019-05-03T21:55:11.713Z,10.7
2019-05-03T22:00:45.450Z,15.6
2019-05-03T22:06:18.408Z,19.2
2019-05-03T22:11:52.208Z,18
2019-05-03T22:17:25.351Z,21.5
2019-05-03T22:22:58.423Z,14.4
2019-05-03T22:28:31.717Z,13.2
2019-05-03T22:34:05.042Z,13.2
2019-05-03T22:39:38.241Z,13.2
2019-05-03T22:45:11.526Z,11.9
2019-05-03T22:50:44.935Z,8.4
2019-05-03T22:56:17.638Z,7.2
2019-05-03T23:01:50.613Z,8.4
2019-05-03T23:07:24.947Z,9.6
2019-05-03T23:12:57.151Z,9.6
2019-05-03T23:18:30.246Z,8.4
2019-05-03T23:24:02.786Z,8.4
2019-05-03T23:29:36.019Z,8.4
2019-05-03T23:35:09.371Z,8.4
2019-05-03T23:40:44.651Z,9.6
2019-05-03T23:46:15.863Z,8.4
2019-05-03T23:51:49.148Z,8.4
2019-05-03T23:57:22.342Z,8.4
